createdAt,value
2022-08-09T00:01:15.562Z,4.88
2022-08-09T00:04:05.936Z,5.45
2022-08-09T00:06:47.150Z,4.40
2022-08-09T00:13:40.822Z,4.50
2022-08-09T00:16:26.383Z,4.65
2022-08-09T00:19:15.326Z,4.72
2022-08-09T00:21:55.855Z,4.28
2022-08-09T00:24:33.513Z,4.07
2022-08-09T00:27:07.600Z,4.07
2022-08-09T00:30:24.515Z,3.90
2022-08-09T00:32:41.062Z,3.72
2022-08-09T00:35:17.885Z,4.18
2022-08-09T00:37:51.667Z,4.10
2022-08-09T00:40:25.279Z,4.00
2022-08-09T00:44:13.796Z,3.97
2022-08-09T00:45:58.169Z,3.90
2022-08-09T00:48:33.679Z,3.72
2022-08-09T00:51:12.854Z,3.53
2022-08-09T00:53:48.899Z,4.60
2022-08-09T00:56:26.369Z,3.70
2022-08-09T00:59:00.047Z,3.95
2022-08-09T01:01:44.434Z,3.95
2022-08-09T01:04:38.635Z,3.90
2022-08-09T01:07:18.539Z,4.35
2022-08-09T01:10:19.782Z,4.28
2022-08-09T01:13:07.398Z,4.55
2022-08-09T01:15:52.242Z,3.90
2022-08-09T01:18:31.491Z,4.30
2022-08-09T01:21:20.649Z,4.72
2022-08-09T01:24:04.934Z,4.00
2022-08-09T01:26:55.995Z,4.50
2022-08-09T01:29:41.277Z,3.60
2022-08-09T01:32:31.114Z,5.13
2022-08-09T01:35:28.555Z,4.47
2022-08-09T01:38:14.827Z,4.05
2022-08-09T01:43:51.683Z,4.35
2022-08-09T01:46:40.458Z,4.20
2022-08-09T01:49:19.125Z,3.97
2022-08-09T01:51:57.973Z,4.32
2022-08-09T01:54:47.194Z,4.30
2022-08-09T01:57:25.266Z,4.30
2022-08-09T02:00:08.916Z,4.40
2022-08-09T02:02:56.585Z,4.15
2022-08-09T02:06:04.183Z,4.45
2022-08-09T02:08:58.760Z,4.40
2022-08-09T02:11:40.296Z,5.15
2022-08-09T02:17:59.190Z,4.45
2022-08-09T02:19:57.040Z,4.55
2022-08-09T02:22:41.367Z,3.88
2022-08-09T02:25:24.125Z,4.28
2022-08-09T02:28:05.235Z,4.75
2022-08-09T02:30:43.404Z,4.80
2022-08-09T02:36:17.687Z,4.13
2022-08-09T02:38:59.371Z,4.38
2022-08-09T02:41:43.030Z,3.40
2022-08-09T02:44:30.209Z,3.80
2022-08-09T02:47:10.667Z,4.50
2022-08-09T02:49:55.369Z,3.88
2022-08-09T02:52:40.410Z,4.35
2022-08-09T02:55:20.759Z,4.22
2022-08-09T02:58:36.396Z,3.88
2022-08-09T03:01:04.162Z,4.25
2022-08-09T03:04:16.813Z,4.30
2022-08-09T03:06:39.160Z,4.00
2022-08-09T03:09:15.926Z,4.05
2022-08-09T03:12:09.876Z,4.90
2022-08-09T03:14:46.601Z,4.22
2022-08-09T03:17:27.012Z,3.83
2022-08-09T03:20:05.077Z,3.88
2022-08-09T03:22:56.940Z,3.58
2022-08-09T03:25:58.537Z,3.70
2022-08-09T03:28:31.853Z,4.28
2022-08-09T03:31:21.298Z,4.00
2022-08-09T03:33:58.057Z,4.20
2022-08-09T03:36:31.788Z,4.68
2022-08-09T03:39:11.220Z,3.90
2022-08-09T03:41:48.456Z,3.70
2022-08-09T03:44:27.807Z,3.80
2022-08-09T03:47:06.006Z,4.18
2022-08-09T03:49:58.436Z,3.97
2022-08-09T03:52:36.146Z,3.95
2022-08-09T03:55:14.378Z,4.25
2022-08-09T03:57:53.554Z,4.22
2022-08-09T04:00:32.319Z,3.80
2022-08-09T04:03:09.235Z,4.30
2022-08-09T04:05:49.725Z,3.92
2022-08-09T04:08:29.112Z,4.55
2022-08-09T04:11:06.922Z,5.10
2022-08-09T04:14:59.110Z,4.78
2022-08-09T04:16:39.028Z,4.20
2022-08-09T04:19:15.792Z,5.00
2022-08-09T04:22:03.929Z,4.88
2022-08-09T04:24:45.793Z,4.65
2022-08-09T04:27:22.230Z,4.97
2022-08-09T04:29:56.139Z,5.22
2022-08-09T04:32:36.951Z,5.03
2022-08-09T04:35:12.977Z,4.82
2022-08-09T04:37:49.844Z,6.35
2022-08-09T04:40:36.268Z,4.82
2022-08-09T04:43:13.920Z,5.72
2022-08-09T04:45:53.954Z,4.22
2022-08-09T04:48:33.181Z,4.78
2022-08-09T04:51:09.664Z,6.35
2022-08-09T04:53:43.550Z,3.95
2022-08-09T04:56:17.199Z,4.38
2022-08-09T04:59:03.777Z,4.55
2022-08-09T05:01:46.200Z,4.35
2022-08-09T05:04:22.889Z,4.32
2022-08-09T05:07:04.821Z,4.30
2022-08-09T05:09:42.093Z,4.07
2022-08-09T05:12:23.625Z,4.55
2022-08-09T05:15:11.656Z,4.28
2022-08-09T05:18:38.987Z,4.22
2022-08-09T05:20:54.898Z,4.40
2022-08-09T05:23:54.183Z,3.83
2022-08-09T05:26:26.658Z,3.78
2022-08-09T05:29:17.407Z,4.20
2022-08-09T05:31:57.585Z,4.07
2022-08-09T05:34:35.598Z,4.43
2022-08-09T05:37:12.494Z,3.67
2022-08-09T05:39:46.292Z,4.30
2022-08-09T05:42:21.904Z,4.28
2022-08-09T05:45:09.640Z,4.40
2022-08-09T05:47:52.356Z,4.20
2022-08-09T05:50:36.166Z,4.32
2022-08-09T05:53:31.702Z,3.90
2022-08-09T05:56:07.645Z,4.50
2022-08-09T05:58:46.131Z,3.80
2022-08-09T06:01:19.845Z,4.43
2022-08-09T06:03:58.474Z,4.43
2022-08-09T06:06:32.800Z,3.58
2022-08-09T06:09:10.059Z,4.25
2022-08-09T06:12:00.322Z,3.95
2022-08-09T06:14:34.732Z,3.65
2022-08-09T06:17:09.972Z,4.10
2022-08-09T06:19:45.704Z,3.58
2022-08-09T06:22:23.573Z,2.90
2022-08-09T06:25:03.192Z,3.65
2022-08-09T06:27:42.150Z,3.28
2022-08-09T06:30:17.066Z,3.28
2022-08-09T06:33:00.516Z,3.75
2022-08-09T06:35:57.396Z,3.88
2022-08-09T06:38:37.377Z,4.00
2022-08-09T06:41:18.871Z,3.20
2022-08-09T06:43:55.760Z,3.30
2022-08-09T06:46:39.909Z,3.30
2022-08-09T06:49:22.703Z,3.17
2022-08-09T06:52:05.682Z,3.20
2022-08-09T06:54:42.107Z,3.45
2022-08-09T06:57:17.279Z,2.67
2022-08-09T07:00:51.797Z,3.05
2022-08-09T07:02:46.090Z,3.30
2022-08-09T07:05:20.762Z,2.90
2022-08-09T07:07:59.534Z,3.00
2022-08-09T07:10:35.176Z,3.00
2022-08-09T07:13:27.426Z,3.15
2022-08-09T07:16:42.915Z,3.00
2022-08-09T07:18:55.817Z,3.10
2022-08-09T07:21:30.854Z,3.30
2022-08-09T07:24:06.763Z,3.20
2022-08-09T07:26:40.415Z,3.10
2022-08-09T07:29:14.617Z,2.80
2022-08-09T07:31:48.610Z,2.63
2022-08-09T07:34:25.737Z,2.28
2022-08-09T07:37:02.843Z,2.58
2022-08-09T07:39:41.460Z,3.05
2022-08-09T07:42:16.274Z,3.08
2022-08-09T07:44:54.588Z,2.60
2022-08-09T07:47:30.051Z,2.85
2022-08-09T07:50:32.990Z,3.25
2022-08-09T07:53:10.390Z,3.50
2022-08-09T07:56:06.218Z,2.72
2022-08-09T07:58:40.634Z,3.42
2022-08-09T08:01:15.078Z,3.13
2022-08-09T08:03:55.094Z,3.33
2022-08-09T08:06:32.166Z,2.70
2022-08-09T08:09:18.169Z,2.88
2022-08-09T08:12:19.738Z,2.75
2022-08-09T08:14:55.467Z,2.60
2022-08-09T08:17:52.875Z,2.63
2022-08-09T08:23:17.474Z,2.72
2022-08-09T08:26:06.289Z,2.25
2022-08-09T08:28:42.281Z,2.17
2022-08-09T08:31:19.193Z,2.20
2022-08-09T08:33:55.878Z,2.50
2022-08-09T08:36:30.629Z,1.65
2022-08-09T08:39:05.950Z,1.85
2022-08-09T08:41:51.687Z,1.83
2022-08-09T08:44:30.054Z,1.83
2022-08-09T08:47:13.166Z,1.92
2022-08-09T08:55:23.474Z,1.75
2022-08-09T08:57:58.540Z,1.45
2022-08-09T09:00:34.206Z,1.65
2022-08-09T09:03:22.579Z,1.40
2022-08-09T09:06:04.614Z,2.25
2022-08-09T09:08:42.455Z,1.77
2022-08-09T09:11:19.761Z,1.95
2022-08-09T09:13:58.556Z,1.35
2022-08-09T09:16:36.642Z,1.30
2022-08-09T09:19:37.345Z,1.73
2022-08-09T09:22:11.424Z,1.48
2022-08-09T09:24:48.007Z,1.35
2022-08-09T09:28:05.871Z,1.42
2022-08-09T09:33:18.523Z,1.60
2022-08-09T09:36:01.947Z,1.67
2022-08-09T09:38:44.405Z,1.70
2022-08-09T09:41:33.534Z,1.70
2022-08-09T09:44:34.146Z,1.98
2022-08-09T09:47:10.158Z,1.67
2022-08-09T09:50:15.361Z,1.92
2022-08-09T09:52:54.666Z,1.50
2022-08-09T09:55:33.040Z,1.45
2022-08-09T09:58:15.620Z,1.85
2022-08-09T10:00:58.432Z,2.05
2022-08-09T10:03:40.506Z,2.13
2022-08-09T10:06:42.386Z,1.80
2022-08-09T10:09:25.000Z,1.60
2022-08-09T10:12:14.900Z,1.92
2022-08-09T10:15:10.760Z,1.58
2022-08-09T10:17:56.261Z,1.92
2022-08-09T10:20:37.271Z,2.05
2022-08-09T10:23:22.136Z,2.00
2022-08-09T10:26:07.541Z,1.95
2022-08-09T10:28:49.104Z,1.60
2022-08-09T10:34:50.191Z,1.70
2022-08-09T10:37:27.574Z,1.60
2022-08-09T10:40:03.211Z,1.55
2022-08-09T10:42:41.162Z,1.98
2022-08-09T10:45:31.574Z,1.55
2022-08-09T10:48:29.545Z,1.60
2022-08-09T10:51:16.800Z,1.38
2022-08-09T10:54:05.283Z,1.70
2022-08-09T10:56:42.495Z,1.80
2022-08-09T10:59:55.279Z,1.75
2022-08-09T11:03:14.933Z,1.40
2022-08-09T11:05:34.763Z,2.97
2022-08-09T11:08:47.716Z,2.10
2022-08-09T11:11:23.147Z,1.55
2022-08-09T11:14:35.592Z,1.40
2022-08-09T11:17:53.325Z,2.17
2022-08-09T11:20:45.665Z,1.40
2022-08-09T11:23:23.996Z,1.80
2022-08-09T11:26:04.026Z,1.98
2022-08-09T11:28:56.333Z,1.52
2022-08-09T11:31:49.760Z,1.52
2022-08-09T11:34:43.893Z,1.63
2022-08-09T11:37:28.100Z,2.53
2022-08-09T11:40:17.957Z,1.70
2022-08-09T11:42:53.786Z,1.70
2022-08-09T11:45:37.750Z,1.70
2022-08-09T11:48:26.476Z,1.70
2022-08-09T11:52:49.005Z,1.60
2022-08-09T11:54:28.060Z,2.00
2022-08-09T11:57:47.991Z,1.80
2022-08-09T12:00:33.442Z,1.73
2022-08-09T12:03:56.113Z,1.85
2022-08-09T12:06:18.420Z,1.65
2022-08-09T12:09:01.585Z,1.58
2022-08-09T12:11:44.495Z,1.40
2022-08-09T12:14:36.811Z,1.58
2022-08-09T12:17:34.105Z,1.80
2022-08-09T12:20:16.567Z,1.75
2022-08-09T12:22:58.737Z,1.88
2022-08-09T12:25:37.414Z,1.90
2022-08-09T12:29:11.904Z,1.85
2022-08-09T12:31:58.688Z,1.60
2022-08-09T12:34:12.890Z,1.67
2022-08-09T12:36:58.590Z,1.67
2022-08-09T12:39:34.412Z,2.17
2022-08-09T12:42:16.238Z,1.77
2022-08-09T12:44:54.504Z,2.03
2022-08-09T12:47:32.710Z,1.80
2022-08-09T12:50:23.763Z,1.90
2022-08-09T12:53:08.586Z,1.75
2022-08-09T12:56:11.919Z,1.50
2022-08-09T12:59:06.670Z,2.15
2022-08-09T13:01:46.813Z,1.65
2022-08-09T13:04:37.098Z,1.93
2022-08-09T13:07:13.880Z,1.48
2022-08-09T13:09:55.052Z,2.88
2022-08-09T13:12:35.794Z,3.22
2022-08-09T13:15:14.238Z,2.22
2022-08-09T13:18:04.604Z,1.63
2022-08-09T13:21:04.082Z,1.80
2022-08-09T13:24:15.830Z,1.88
2022-08-09T13:26:42.318Z,2.08
2022-08-09T13:29:28.546Z,2.22
2022-08-09T13:32:26.620Z,2.05
2022-08-09T13:35:08.370Z,1.77
2022-08-09T13:37:52.129Z,1.70
2022-08-09T13:41:50.814Z,3.03
2022-08-09T13:43:20.262Z,2.05
2022-08-09T13:46:42.269Z,1.38
2022-08-09T13:48:49.406Z,1.80
2022-08-09T13:51:23.047Z,1.98
2022-08-09T13:54:00.884Z,1.80
2022-08-09T13:56:34.496Z,1.60
2022-08-09T13:59:08.499Z,1.95
2022-08-09T14:02:01.692Z,1.50
2022-08-09T14:04:36.147Z,3.28
2022-08-09T14:07:09.844Z,1.60
2022-08-09T14:09:44.198Z,1.40
2022-08-09T14:12:17.883Z,1.50
2022-08-09T14:14:57.532Z,1.83
2022-08-09T14:18:16.547Z,1.73
2022-08-09T14:20:29.259Z,2.17
2022-08-09T14:23:02.966Z,1.55
2022-08-09T14:25:42.910Z,1.52
2022-08-09T14:28:16.801Z,1.60
2022-08-09T14:30:54.691Z,1.65
2022-08-09T14:33:30.419Z,1.90
2022-08-09T14:36:19.488Z,1.63
2022-08-09T14:38:53.623Z,1.85
2022-08-09T14:41:39.557Z,1.92
2022-08-09T14:44:32.445Z,3.38
2022-08-09T14:47:42.918Z,1.80
2022-08-09T14:52:47.740Z,1.90
2022-08-09T14:55:23.857Z,1.88
2022-08-09T14:57:58.517Z,1.98
2022-08-09T15:00:33.608Z,2.08
2022-08-09T15:03:08.769Z,2.03
2022-08-09T15:05:51.434Z,1.85
2022-08-09T15:08:30.360Z,2.38
2022-08-09T15:11:05.185Z,1.80
2022-08-09T15:13:48.635Z,2.38
2022-08-09T15:16:33.402Z,5.40
2022-08-09T15:19:18.183Z,2.75
2022-08-09T15:22:02.359Z,2.03
2022-08-09T15:24:36.389Z,1.85
2022-08-09T15:27:09.906Z,1.90
2022-08-09T15:30:55.747Z,1.63
2022-08-09T15:32:38.169Z,3.53
2022-08-09T15:35:18.055Z,4.13
2022-08-09T15:38:11.072Z,3.88
2022-08-09T15:40:45.667Z,5.30
2022-08-09T15:43:19.955Z,2.95
2022-08-09T15:46:28.733Z,2.70
2022-08-09T15:49:22.756Z,2.33
2022-08-09T15:52:04.405Z,3.25
2022-08-09T15:54:46.287Z,2.15
2022-08-09T15:57:34.046Z,2.20
2022-08-09T16:00:14.103Z,3.28
2022-08-09T16:02:54.054Z,3.17
2022-08-09T16:05:47.849Z,2.97
2022-08-09T16:08:29.662Z,2.60
2022-08-09T16:11:06.593Z,2.30
2022-08-09T16:14:03.807Z,2.30
2022-08-09T16:16:48.101Z,2.40
2022-08-09T16:19:22.020Z,2.78
2022-08-09T16:21:56.216Z,2.63
2022-08-09T16:24:34.334Z,2.90
2022-08-09T16:27:09.565Z,3.65
2022-08-09T16:29:50.674Z,2.83
2022-08-09T16:32:49.771Z,2.28
2022-08-09T16:35:57.949Z,2.35
2022-08-09T16:40:56.472Z,2.50
2022-08-09T16:43:31.651Z,2.53
2022-08-09T16:46:08.153Z,11.35
2022-08-09T16:48:59.262Z,4.90
2022-08-09T16:51:38.456Z,7.15
2022-08-09T16:54:34.025Z,4.28
2022-08-09T16:57:07.179Z,2.95
2022-08-09T16:59:57.294Z,2.83
2022-08-09T17:02:31.287Z,2.65
2022-08-09T17:05:06.384Z,2.80
2022-08-09T17:08:44.644Z,2.35
2022-08-09T17:10:37.853Z,2.40
2022-08-09T17:13:11.786Z,3.33
2022-08-09T17:15:59.469Z,3.00
2022-08-09T17:18:34.360Z,2.63
2022-08-09T17:21:09.165Z,2.22
2022-08-09T17:24:20.505Z,2.63
2022-08-09T17:26:38.453Z,3.33
2022-08-09T17:29:20.290Z,2.53
2022-08-09T17:31:57.979Z,2.78
2022-08-09T17:35:02.145Z,3.95
2022-08-09T17:37:29.558Z,5.68
2022-08-09T17:40:04.829Z,5.90
2022-08-09T17:42:55.784Z,5.07
2022-08-09T17:46:01.695Z,5.53
2022-08-09T17:48:29.580Z,4.15
2022-08-09T17:51:09.975Z,4.53
2022-08-09T17:53:55.783Z,4.43
2022-08-09T17:56:35.361Z,4.22
2022-08-09T17:59:15.997Z,8.60
2022-08-09T18:02:11.233Z,7.57
2022-08-09T18:04:47.694Z,4.15
2022-08-09T18:07:26.699Z,3.58
2022-08-09T18:10:05.571Z,3.45
2022-08-09T18:12:40.433Z,4.55
2022-08-09T18:16:05.433Z,5.72
2022-08-09T18:18:32.756Z,4.50
2022-08-09T18:21:23.762Z,4.45
2022-08-09T18:24:12.823Z,3.92
2022-08-09T18:26:48.261Z,4.75
2022-08-09T18:30:40.709Z,4.30
2022-08-09T18:32:18.951Z,4.40
2022-08-09T18:34:53.061Z,5.20
2022-08-09T18:37:47.570Z,4.75
2022-08-09T18:40:26.978Z,4.53
2022-08-09T18:43:01.057Z,4.95
2022-08-09T18:46:50.727Z,5.15
2022-08-09T18:48:30.391Z,5.05
2022-08-09T18:51:06.753Z,8.40
2022-08-09T18:54:01.905Z,5.63
2022-08-09T18:56:36.173Z,5.88
2022-08-09T18:59:10.155Z,6.30
2022-08-09T19:01:46.787Z,5.95
2022-08-09T19:04:34.749Z,6.22
2022-08-09T19:07:09.007Z,5.97
2022-08-09T19:10:16.681Z,7.18
2022-08-09T19:12:38.571Z,5.60
2022-08-09T19:15:13.884Z,7.05
2022-08-09T19:17:55.208Z,7.72
2022-08-09T19:20:34.281Z,8.07
2022-08-09T19:23:16.824Z,8.90
2022-08-09T19:26:04.940Z,10.65
2022-08-09T19:28:42.614Z,9.15
2022-08-09T19:31:23.499Z,10.52
2022-08-09T19:33:57.192Z,10.98
2022-08-09T19:36:32.746Z,10.50
2022-08-09T19:39:06.701Z,9.98
2022-08-09T19:41:42.492Z,9.45
2022-08-09T19:44:18.620Z,9.15
2022-08-09T19:46:53.905Z,8.07
2022-08-09T19:50:08.545Z,7.60
2022-08-09T19:52:21.822Z,6.82
2022-08-09T19:54:58.974Z,8.07
2022-08-09T19:57:35.337Z,6.47
2022-08-09T20:00:10.377Z,6.25
2022-08-09T20:04:17.799Z,5.70
2022-08-09T20:05:46.728Z,5.50
2022-08-09T20:08:24.851Z,5.40
2022-08-09T20:11:07.515Z,6.10
2022-08-09T20:13:42.635Z,6.43
2022-08-09T20:16:35.162Z,6.32
2022-08-09T20:19:48.423Z,6.40
2022-08-09T20:22:09.844Z,5.65
2022-08-09T20:24:54.204Z,5.18
2022-08-09T20:27:29.302Z,5.93
2022-08-09T20:30:05.027Z,5.70
2022-08-09T20:32:39.100Z,8.23
2022-08-09T20:35:13.523Z,5.60
2022-08-09T20:38:23.993Z,7.18
2022-08-09T20:40:43.413Z,6.32
2022-08-09T20:43:24.547Z,7.43
2022-08-09T20:46:41.790Z,6.65
2022-08-09T20:48:54.545Z,6.03
2022-08-09T20:51:28.245Z,5.90
2022-08-09T20:54:03.757Z,6.10
2022-08-09T20:56:38.546Z,6.72
2022-08-09T20:59:17.082Z,5.60
2022-08-09T21:01:53.652Z,6.05
2022-08-09T21:05:53.138Z,6.63
2022-08-09T21:07:24.785Z,6.18
2022-08-09T21:10:13.209Z,9.73
2022-08-09T21:15:34.780Z,6.90
2022-08-09T21:18:25.052Z,7.63
2022-08-09T21:21:01.287Z,7.85
2022-08-09T21:23:51.769Z,11.32
2022-08-09T21:26:27.717Z,7.50
2022-08-09T21:29:01.299Z,7.47
2022-08-09T21:31:49.860Z,7.28
2022-08-09T21:34:28.744Z,6.38
2022-08-09T21:37:02.894Z,7.75
2022-08-09T21:39:42.289Z,6.95
2022-08-09T21:42:16.809Z,7.22
2022-08-09T21:44:50.593Z,7.20
2022-08-09T21:47:24.615Z,7.30
2022-08-09T21:50:01.120Z,7.57
2022-08-09T21:52:37.065Z,7.18
2022-08-09T21:55:14.814Z,7.88
2022-08-09T21:57:59.469Z,7.78
2022-08-09T22:00:36.751Z,7.03
2022-08-09T22:03:19.742Z,7.07
2022-08-09T22:06:01.278Z,7.03
2022-08-09T22:08:37.075Z,6.75
2022-08-09T22:12:05.733Z,7.82
2022-08-09T22:16:48.489Z,6.80
2022-08-09T22:19:58.851Z,6.93
2022-08-09T22:22:23.109Z,7.35
2022-08-09T22:26:06.209Z,7.15
2022-08-09T22:27:53.498Z,7.40
2022-08-09T22:30:33.328Z,7.35
2022-08-09T22:33:09.615Z,7.30
2022-08-09T22:36:00.026Z,7.18
2022-08-09T22:38:35.842Z,7.28
2022-08-09T22:41:14.168Z,7.53
2022-08-09T22:44:03.167Z,7.68
2022-08-09T22:48:10.693Z,6.72
2022-08-09T22:49:40.529Z,8.00
2022-08-09T22:52:18.469Z,8.00
2022-08-09T22:54:54.898Z,8.05
2022-08-09T22:57:35.736Z,7.60
2022-08-09T23:00:12.022Z,7.95
2022-08-09T23:02:46.848Z,8.60
2022-08-09T23:05:24.282Z,8.75
2022-08-09T23:08:23.173Z,7.95
2022-08-09T23:11:04.726Z,9.02
2022-08-09T23:13:40.348Z,9.25
2022-08-09T23:16:16.648Z,9.90
2022-08-09T23:18:50.370Z,8.90
2022-08-09T23:21:30.083Z,9.30
2022-08-09T23:24:10.015Z,10.18
2022-08-09T23:26:45.169Z,9.38
2022-08-09T23:29:20.726Z,9.65
2022-08-09T23:31:57.081Z,9.00
2022-08-09T23:34:33.117Z,9.05
2022-08-09T23:37:10.839Z,9.43
2022-08-09T23:39:47.279Z,9.18
2022-08-09T23:42:25.327Z,9.40
2022-08-09T23:44:59.435Z,9.50
2022-08-09T23:47:33.012Z,9.20
2022-08-09T23:50:10.160Z,8.57
2022-08-09T23:52:44.629Z,10.50
2022-08-09T23:55:22.756Z,9.38
2022-08-09T23:58:10.595Z,9.82
